Latest Weather Observations for Marion Reef

IDQ60801

Issued at 7:35 pm EST Thursday 21 August 2014 (issued every 30 minutes, with the page automatically refreshed every 10 minutes)

About weather observations | Map of weather stations | Latest weather observations for QLD | Other Formats
Station Details ID: 200704 Name: MARION REEF Lat: -19.10 Lon: 152.39 Height: 2.0 m
Data from the previous 72 hours. | See also: Recent months for locations in Queensland
Date/Time
EST
Temp
°C
App
Temp
°C
Dew
Point
Rel
Hum
%
Delta-T
°C
Wind Press
QNH
hPa
Press
MSL
hPa
Rain
since 9 am
mm
Dir
 
Spd
km/h
Gust
km/h
Spd
kts
Gust
kts
21/07:30pm 22.5 - - - - ESE 24 30 13 16 1017.2 - -
21/07:00pm 22.6 - - - - ESE 24 28 13 15 1017.0 1016.9 -
21/06:30pm 22.6 - - - - ESE 24 28 13 15 1016.7 - -
21/06:00pm 22.4 - - - - ESE 24 30 13 16 1016.4 1016.4 -
21/05:30pm 22.4 - - - - SE 22 26 12 14 1016.1 - -
21/05:00pm 22.4 - - - - SE 22 28 12 15 1015.9 1015.8 -
21/04:30pm 22.5 - - - - ESE 22 28 12 15 1015.7 - -
21/04:00pm 22.4 - - - - ESE 22 26 12 14 1015.6 1015.5 -
21/03:30pm 22.4 - - - - SE 22 28 12 15 1015.3 - -
21/03:00pm 22.4 - - - - ESE 22 26 12 14 1015.2 1015.0 -
21/02:30pm 22.3 - - - - SE 22 26 12 14 1015.4 - -
21/02:00pm 22.5 - - - - ESE 22 26 12 14 1015.5 1015.4 -
21/01:30pm 22.3 - - - - SE 24 28 13 15 1015.7 - -
21/01:00pm 22.4 - - - - SE 22 26 12 14 1016.0 1015.9 -
21/12:30pm 22.4 - - - - SE 22 26 12 14 1016.4 - -
21/12:00pm 22.4 - - - - SE 22 26 12 14 1016.9 1016.8 -
21/11:30am 22.4 - - - - SE 24 28 13 15 1017.2 - -
21/11:00am 22.5 - - - - ESE 22 26 12 14 1017.6 1017.4 -
21/10:30am 22.3 - - - - ESE 22 26 12 14 1018.2 - -
21/10:00am 22.2 - - - - ESE 22 26 12 14 1018.3 1018.2 -
21/09:30am 22.3 - - - - ESE 20 26 11 14 1018.4 - -
21/09:00am 22.3 - - - - ESE 20 28 11 15 1018.5 1018.4 -
21/08:30am 22.2 - - - - ESE 22 26 12 14 1018.4 - -
21/08:00am 22.1 - - - - ESE 20 24 11 13 1018.1 1018.1 -
21/07:30am 21.9 - - - - ESE 20 26 11 14 1017.8 - -
21/07:00am 21.8 - - - - ESE 19 24 10 13 1017.5 1017.4 -
21/06:30am 22.0 - - - - ESE 20 26 11 14 1017.2 - -
21/06:00am 21.7 - - - - ESE 20 26 11 14 1016.8 1016.8 -
21/05:30am 21.6 - - - - ESE 20 26 11 14 1016.4 - -
21/05:00am 21.6 - - - - ESE 19 22 10 12 1016.1 1016.0 -
21/04:30am 21.7 - - - - SE 20 26 11 14 1015.8 - -
21/04:00am 21.6 - - - - ESE 22 28 12 15 1015.7 1015.6 -
21/03:30am 21.5 - - - - ESE 20 26 11 14 1015.5 - -
21/03:00am 21.5 - - - - ESE 22 26 12 14 1015.5 1015.4 -
21/02:30am 21.6 - - - - E 22 26 12 14 1015.8 - -
21/02:00am 21.7 - - - - E 20 26 11 14 1016.1 1016.0 -
21/01:30am 21.6 - - - - ESE 20 24 11 13 1016.4 - -
21/01:00am 21.6 - - - - E 20 26 11 14 1016.7 1016.6 -
21/12:30am 21.6 - - - - ESE 20 24 11 13 1017.0 - -
21/12:00am 21.6 - - - - ESE 22 26 12 14 1017.5 1017.4 -
 
Date/Time
EST
Temp
°C
App
Temp
°C
Dew
Point
Rel
Hum
%
Delta-T
°C
Wind Press
QNH
hPa
Press
MSL
hPa
Rain
since 9 am
mm
Dir
 
Spd
km/h
Gust
km/h
Spd
kts
Gust
kts
20/11:30pm 21.7 - - - - E 22 28 12 15 1017.7 - -
20/11:00pm 21.7 - - - - ESE 20 26 11 14 1018.1 1018.0 -
20/10:30pm 21.7 - - - - E 22 26 12 14 1018.5 - -
20/10:00pm 21.7 - - - - E 22 30 12 16 1018.8 1018.7 -
20/09:30pm 21.7 - - - - ESE 22 26 12 14 1018.9 - -
20/09:00pm 21.7 - - - - E 22 30 12 16 1019.1 1018.9 -
20/08:30pm 21.7 - - - - ESE 24 30 13 16 1019.2 - -
20/08:00pm 21.8 - - - - ESE 22 30 12 16 1019.0 1018.9 -
20/07:30pm 21.6 - - - - ESE 22 28 12 15 1018.7 - -
20/07:00pm 21.5 - - - - ESE 24 28 13 15 1018.2 1018.1 -
20/06:30pm 21.6 - - - - SE 22 30 12 16 1017.9 - -
20/06:00pm 21.5 - - - - ESE 22 28 12 15 1017.6 1017.5 -
20/05:30pm 21.6 - - - - ESE 24 28 13 15 1017.0 - -
20/05:00pm 21.4 - - - - ESE 24 30 13 16 1016.8 1016.7 -
20/04:30pm 21.4 - - - - ESE 22 30 12 16 1016.7 - -
20/04:00pm 21.6 - - - - SE 22 26 12 14 1016.2 1016.1 -
20/03:30pm 21.6 - - - - SE 20 26 11 14 1015.9 - -
20/03:00pm 21.5 - - - - SE 20 26 11 14 1015.8 1015.8 -
20/02:30pm 21.5 - - - - SE 22 28 12 15 1015.8 - -
20/02:00pm 21.6 - - - - SE 20 26 11 14 1015.8 1015.7 -
20/01:30pm 21.4 - - - - SE 20 26 11 14 1015.8 - -
20/01:00pm 21.5 - - - - SE 24 28 13 15 1015.8 1015.7 -
20/12:30pm 21.6 - - - - SE 22 28 12 15 1016.3 - -
20/12:00pm 21.2 - - - - SE 24 28 13 15 1016.5 1016.4 -
20/11:30am 21.5 - - - - SSE 26 30 14 16 1016.8 - -
20/11:00am 21.2 - - - - SSE 26 30 14 16 1017.4 1017.2 -
20/10:30am 21.2 - - - - SSE 24 28 13 15 1017.7 - -
20/10:00am 21.2 - - - - SSE 24 32 13 17 1017.9 1017.8 -
20/09:30am 21.3 - - - - SSE 24 30 13 16 1017.8 - -
20/09:00am 21.3 - - - - SSE 26 32 14 17 1017.8 1017.7 -
20/08:30am 21.2 - - - - SSE 20 24 11 13 1017.8 - -
20/08:00am 21.1 - - - - SSE 24 30 13 16 1017.7 1017.5 -
20/07:30am 20.9 - - - - SSE 20 24 11 13 1017.7 - -
20/07:00am 20.9 - - - - SSE 19 22 10 12 1017.5 1017.4 -
20/06:30am 20.8 - - - - SSE 19 26 10 14 1017.2 - -
20/06:00am 20.7 - - - - SSE 15 20 8 11 1017.1 1017.1 -
20/05:30am 20.8 - - - - SSE 20 26 11 14 1016.9 - -
20/05:00am 20.9 - - - - SE 19 20 10 11 1016.6 1016.6 -
20/04:30am 20.8 - - - - SSE 19 28 10 15 1016.5 - -
20/04:00am 20.9 - - - - S 20 24 11 13 1016.4 1016.3 -
20/03:30am 20.8 - - - - S 15 20 8 11 1016.4 - -
20/03:00am 20.9 - - - - S 15 24 8 13 1016.2 1016.2 -
20/02:30am 20.9 - - - - S 17 20 9 11 1016.3 - -
20/02:00am 20.8 - - - - S 11 19 6 10 1016.5 1016.4 -
20/01:30am 21.0 - - - - S 9 15 5 8 1016.7 - -
20/01:00am 21.1 - - - - S 13 20 7 11 1017.1 1016.9 -
20/12:30am 21.2 - - - - SE 11 15 6 8 1017.2 - -
20/12:00am 21.3 - - - - S 11 11 6 6 1017.4 1017.3 -
 
Date/Time
EST
Temp
°C
App
Temp
°C
Dew
Point
Rel
Hum
%
Delta-T
°C
Wind Press
QNH
hPa
Press
MSL
hPa
Rain
since 9 am
mm
Dir
 
Spd
km/h
Gust
km/h
Spd
kts
Gust
kts
19/11:30pm 21.3 - - - - SSE 9 15 5 8 1017.5 - -
19/11:00pm 21.4 - - - - S 11 15 6 8 1017.6 1017.4 -
19/10:30pm 21.4 - - - - CALM 0 0 0 0 1017.6 - -
19/10:00pm 21.5 - - - - S 7 17 4 9 1017.7 1017.6 -
19/09:30pm 21.6 - - - - S 13 19 7 10 1017.6 - -
19/09:00pm 21.5 - - - - S 17 22 9 12 1017.3 1017.3 -
19/08:30pm 21.7 - - - - S 17 24 9 13 1017.1 - -
19/08:00pm 21.7 - - - - S 11 15 6 8 1017.0 1016.9 -
19/07:30pm 21.8 - - - - SSW 15 20 8 11 1016.6 - -
19/07:00pm 21.7 - - - - S 15 19 8 10 1016.3 1016.3 -
19/06:30pm 21.7 - - - - SSW 17 20 9 11 1016.1 - -
19/06:00pm 21.8 - - - - SSW 4 20 2 11 1015.7 1015.7 -
19/05:30pm 21.8 - - - - S 17 24 9 13 1015.5 - -
19/05:00pm 21.9 - - - - S 15 19 8 10 1015.3 1015.2 -
19/04:30pm 21.9 - - - - S 19 24 10 13 1015.0 - -
19/04:00pm 22.1 - - - - SSW 17 22 9 12 1014.9 1014.8 -
19/03:30pm 21.9 - - - - S 20 26 11 14 1014.8 - -
19/03:00pm 22.0 - - - - SSW 20 24 11 13 1014.8 1014.6 -
19/02:30pm 21.9 - - - - S 19 24 10 13 1014.7 - -
19/02:00pm 21.9 - - - - SSW 19 24 10 13 1014.9 1014.8 -
19/01:30pm 21.9 - - - - SSW 20 26 11 14 1015.0 - -
19/01:00pm 21.9 - - - - SSW 26 33 14 18 1015.3 1015.2 -
19/12:30pm 21.9 - - - - SSW 26 30 14 16 1015.6 - -
19/12:00pm 22.0 - - - - S 24 28 13 15 1015.9 1015.8 -
19/11:30am 22.0 - - - - S 24 28 13 15 1016.4 - -
19/11:00am 21.9 - - - - SSW 22 28 12 15 1016.9 1016.7 -
19/10:30am 21.8 - - - - S 24 30 13 16 1017.4 - -
19/10:00am 21.8 - - - - S 22 28 12 15 1017.7 1017.5 -
19/09:30am 21.9 - - - - S 22 28 12 15 1018.0 - -
19/09:00am 21.9 - - - - S 22 28 12 15 1018.1 1017.9 -
19/08:30am 21.9 - - - - S 26 32 14 17 1018.0 - -
19/08:00am 21.9 - - - - S 22 24 12 13 1017.9 1017.8 -
19/07:30am 21.8 - - - - S 24 32 13 17 1017.6 - -
19/07:00am 21.8 - - - - S 22 26 12 14 1017.2 1017.2 -
19/06:30am 21.7 - - - - S 24 32 13 17 1017.1 - -
19/06:00am 21.8 - - - - S 24 30 13 16 1016.8 1016.8 -
19/05:30am 21.7 - - - - S 24 30 13 16 1016.5 - -
19/05:00am 21.7 - - - - S 20 28 11 15 1016.2 1016.2 -
19/04:30am 21.3 - - - - S 22 26 12 14 1016.1 - -
19/04:00am 21.1 - - - - S 20 26 11 14 1015.8 1015.8 -
19/03:30am 21.0 - - - - S 24 32 13 17 1015.9 - -
19/03:00am 20.8 - - - - S 22 33 12 18 1016.0 1015.9 -
19/02:30am 20.8 - - - - SSW 28 32 15 17 1015.8 - -
19/02:00am 20.7 - - - - SSW 22 30 12 16 1015.9 1015.8 -
19/01:30am 20.7 - - - - SW 22 26 12 14 1016.3 - -
19/01:00am 20.7 - - - - SSW 22 28 12 15 1016.5 1016.4 -
19/12:30am 20.8 - - - - SSW 22 26 12 14 1016.4 - -
19/12:00am 20.9 - - - - SSW 19 20 10 11 1016.7 1016.5 -
 
Date/Time
EST
Temp
°C
App
Temp
°C
Dew
Point
Rel
Hum
%
Delta-T
°C
Wind Press
QNH
hPa
Press
MSL
hPa
Rain
since 9 am
mm
Dir
 
Spd
km/h
Gust
km/h
Spd
kts
Gust
kts
18/11:30pm 20.8 - - - - SSW 13 17 7 9 1016.7 - -
18/11:00pm 20.8 - - - - SSW 13 20 7 11 1016.8 1016.7 -
18/10:30pm 20.9 - - - - S 11 15 6 8 1016.9 - -
18/10:00pm 20.9 - - - - S 13 17 7 9 1016.8 1016.7 -
18/09:30pm 20.9 - - - - S 15 20 8 11 1016.9 - -
18/09:00pm 21.0 - - - - SSW 15 19 8 10 1016.8 1016.7 -
18/08:30pm 21.0 - - - - S 17 20 9 11 1016.7 - -
18/08:00pm 21.1 - - - - S 17 20 9 11 1016.5 1016.4 -

Other Formats:

Comma delimited format used in spreadsheet applications
http://www.bom.gov.au/fwo/IDQ60801/IDQ60801.94298.axf

JavaScript Object Notation format (JSON) in row-major order
http://www.bom.gov.au/fwo/IDQ60801/IDQ60801.94298.json